Ridgeville, SC (29472)

10:26 AM EDT on April 25, 2015 (GMT -0400)
Summerville | | Change Station
CLOSE
Current Station
Airport
Location: Summerville,
Elevation: 56 ft
Nearby Weather Stations
Active Advisory: Flood Warning

Elev 56 ft 33.06 °N, 80.28 °W | Updated 11 minutes ago

Light Rain
Light Rain
64 °F
Feels Like 64 °F
N
0
Wind Variable Wind from North

Today
High -- | Low -- °F
--% Chance of Precip.
Yesterday
High -- | Low -- °F
Precip. -- in
6:40 AM 7:58 PM
Waxing Crescent, 46% visible
Pressure 29.93 in
Visibility 10.0 miles
Clouds Scattered Clouds 4700 ft
Scattered Clouds 7000 ft
Overcast 8000 ft
Dew Point 63 °F
Humidity 94%
Rainfall 0.00 in
Snow Depth Not available.
UV 2 out of 12
Pollen 8.00 out of 12
Air Quality Not available.
Flu Activity Local Activity
METAR KDYB 251415Z AUTO 00000KT 10SM -RA SCT047 SCT070 OVC080 18/17 A2993 RMK AO1

More Conditions Fewer Conditions

Pressure 29.93 in
Visibility 10.0 miles
Clouds Scattered Clouds 4700 ft
Scattered Clouds 7000 ft
Overcast 8000 ft
Dew Point 63 °F
Humidity 94%
Rainfall 0.00 in
Snow Depth Not available.
UV 2 out of 12
Pollen 8.00 out of 12
Air Quality Not available.
Flu Activity Local Activity
METAR KDYB 251415Z AUTO 00000KT 10SM -RA SCT047 SCT070 OVC080 18/17 A2993 RMK AO1

More Conditions Fewer Conditions

10-Day Weather Forecast

Almanac

Astronomy

Apr. 25, 2015 Rise Set
Actual Time
Civil Twilight
Nautical Twilight
Astronomical Twilight
Moon
Length of Visible Light
Length of Day
Tomorrow will be .
, % of the Moon is Illuminated

Today's Extremes

State Highs State Lows

Community

WunderPhotos

Upload Photos

1,816,686 photos uploaded!

WunderBlogs® & News

Nearby

Air Quality

  Air Quality AQ Index Pollutant
Not available.

Snow Depth

Station Depth Elevation

Earthquake Activity

City Distance Mag. Time & Date
Minimum magnitude displayed is 2.5.

Coastal Water Temperatures

Place Temperature

Stations

Nearby Weather Stations

Station Location Temp. Windchill Dew Point Humidity Wind Precip. Elev Updated Type
                   
Flood Warning
Statement as of 10:06 AM EDT on April 25, 2015

The Flood Warning continues for
the edisto river near Givhans Ferry.
* At 9 am Saturday the stage was 10.3 feet.
* Flood stage is 10.0 feet.
* Minor flooding is occurring.
* Forecast, the river will rise to near 10.7 feet by Monday evening
then begin a slow fall.
* At 11.0 feet, Weeks Landing in Canadys is no longer accessible.


Lat... Lon 3303 8055 3310 8053 3308 8036 3290 8037
          3290 8045 3302 8044